Time;durP1;ratioP1;P1;durP2;ratioP2;P2;SDS_P1;SDS_P2;PMS_P1;PMS_P2;Temp;Humidity;BMP_temperature;BMP_pressure;BME280_temperature;BME280_humidity;BME280_pressure;Samples;Min_cycle;Max_cycle;Signal;HPM_P1;HPM_P2
2023/07/10 00:01:01;;;;;;;5.00;4.00;;;;;;;-145.41;100.00;58600.66;5006626;28;20654;-74
2023/07/10 00:03:28;;;;;;;5.93;4.57;;;;;;;-145.41;100.00;58600.66;5007018;28;20091;-74
2023/07/10 00:05:55;;;;;;;6.68;5.05;;;;;;;-145.41;100.00;58600.66;5006740;28;20049;-74
2023/07/10 00:08:20;;;;;;;6.35;4.47;;;;;;;-145.41;100.00;58600.66;5008734;28;20493;-74
2023/07/10 00:10:45;;;;;;;7.13;4.95;;;;;;;-145.41;100.00;58600.66;5006597;28;20045;-75
2023/07/10 00:13:12;;;;;;;6.47;4.97;;;;;;;-145.41;100.00;58600.66;5005205;28;20042;-75
2023/07/10 00:15:38;;;;;;;7.88;4.72;;;;;;;-145.41;100.00;58600.66;5005433;28;20033;-75
2023/07/10 00:18:12;;;;;;;5.75;4.53;;;;;;;-145.41;100.00;58600.66;5005595;28;20037;-75
2023/07/10 00:20:37;;;;;;;6.47;4.93;;;;;;;-145.41;100.00;58600.66;5003840;28;20129;-75
2023/07/10 00:23:03;;;;;;;7.68;4.80;;;;;;;-145.41;100.00;58600.66;5010087;28;20116;-75
2023/07/10 00:25:28;;;;;;;7.82;5.28;;;;;;;-145.41;100.00;58600.66;5004324;28;20078;-75
2023/07/10 00:27:53;;;;;;;6.43;4.88;;;;;;;-145.41;100.00;58600.66;5006712;28;20096;-74
2023/07/10 00:30:21;;;;;;;6.30;4.80;;;;;;;-145.41;100.00;58600.66;5009465;28;20033;-74
2023/07/10 00:32:52;;;;;;;6.85;5.00;;;;;;;-145.41;100.00;58600.66;5008583;28;20025;-75
2023/07/10 00:35:23;;;;;;;7.30;4.95;;;;;;;-145.41;100.00;58600.66;5010209;28;20038;-74
2023/07/10 00:38:03;;;;;;;6.63;4.80;;;;;;;-145.41;100.00;58600.66;5013550;28;20037;-75
2023/07/10 00:40:33;;;;;;;5.75;4.30;;;;;;;-145.41;100.00;58600.66;5003472;28;20033;-74
2023/07/10 00:43:25;;;;;;;7.85;4.40;;;;;;;-145.41;100.00;58600.66;5005803;28;20045;-75
2023/07/10 00:45:51;;;;;;;8.38;5.32;;;;;;;-145.41;100.00;58600.66;5006795;28;20782;-74
2023/07/10 00:48:29;;;;;;;8.75;4.68;;;;;;;-145.41;100.00;58600.66;5007454;28;20026;-75
2023/07/10 00:50:58;;;;;;;5.70;4.13;;;;;;;-145.41;100.00;58600.66;5002654;28;20034;-74
2023/07/10 00:53:36;;;;;;;5.50;4.65;;;;;;;-145.41;100.00;58600.66;5009480;28;20028;-75
2023/07/10 00:56:03;;;;;;;6.43;4.13;;;;;;;-145.41;100.00;58600.66;5008571;28;20037;-75
2023/07/10 00:58:37;;;;;;;7.60;5.25;;;;;;;-145.41;100.00;58600.66;5008224;28;20034;-75
2023/07/10 01:01:10;;;;;;;7.65;4.60;;;;;;;-145.41;100.00;58600.66;5012201;28;20034;-75
2023/07/10 01:03:37;;;;;;;6.70;4.95;;;;;;;-145.41;100.00;58600.66;5012251;28;20097;-75
2023/07/10 01:06:16;;;;;;;7.88;5.00;;;;;;;-145.41;100.00;58600.66;5009339;28;20034;-75
2023/07/10 01:08:46;;;;;;;11.23;4.90;;;;;;;-145.41;100.00;58600.66;5012098;28;20036;-76
2023/07/10 01:11:11;;;;;;;8.07;4.97;;;;;;;-145.41;100.00;58600.66;5009301;28;20524;-75
2023/07/10 01:13:41;;;;;;;9.40;4.93;;;;;;;-145.41;100.00;58600.66;5013007;28;20141;-75
2023/07/10 01:16:08;;;;;;;8.60;4.18;;;;;;;-145.41;100.00;58600.66;5005250;28;20030;-76
2023/07/10 01:18:35;;;;;;;9.45;4.53;;;;;;;-145.41;100.00;58600.66;5005430;28;20126;-75
2023/07/10 01:21:19;;;;;;;9.70;4.85;;;;;;;-145.41;100.00;58600.66;5013166;28;20029;-76
2023/07/10 01:23:45;;;;;;;6.90;4.32;;;;;;;-145.41;100.00;58600.66;5009296;28;20040;-76
2023/07/10 01:26:10;;;;;;;8.50;4.60;;;;;;;-145.41;100.00;58600.66;5011798;28;20046;-76
2023/07/10 01:28:36;;;;;;;8.93;4.55;;;;;;;-145.41;100.00;58600.66;5012386;28;20033;-76
2023/07/10 01:31:12;;;;;;;6.15;4.35;;;;;;;-145.41;100.00;58600.66;5012811;28;20634;-75
2023/07/10 01:33:46;;;;;;;6.60;4.32;;;;;;;-145.41;100.00;58600.66;5011970;28;20034;-76
2023/07/10 01:36:15;;;;;;;9.43;4.55;;;;;;;-145.41;100.00;58600.66;5007154;28;20048;-76
2023/07/10 01:38:47;;;;;;;6.25;4.55;;;;;;;-145.41;100.00;58600.66;5007546;28;20038;-77
2023/07/10 01:41:23;;;;;;;8.73;4.88;;;;;;;-145.41;100.00;58600.66;5010573;28;20046;-76
2023/07/10 01:43:48;;;;;;;8.27;5.43;;;;;;;-145.41;100.00;58600.66;5005392;28;20030;-76
2023/07/10 01:46:21;;;;;;;5.93;4.13;;;;;;;-145.41;100.00;58600.66;5011152;28;20081;-76
2023/07/10 01:48:49;;;;;;;8.18;4.95;;;;;;;-145.41;100.00;58600.66;5011975;28;20030;-76
2023/07/10 01:51:14;;;;;;;6.03;4.60;;;;;;;-145.41;100.00;58600.66;5009713;28;20026;-76
2023/07/10 01:53:44;;;;;;;9.43;5.05;;;;;;;-145.41;100.00;58600.66;5010631;28;20080;-76
2023/07/10 01:56:10;;;;;;;7.30;4.88;;;;;;;-145.41;100.00;58600.66;5009231;28;20026;-76
2023/07/10 02:01:00;;;;;;;6.97;4.65;;;;;;;-145.41;100.00;58600.66;4970278;28;20414;-75
2023/07/10 02:03:26;;;;;;;8.00;4.78;;;;;;;-145.41;100.00;58600.66;4974430;28;20053;-75
2023/07/10 02:05:51;;;;;;;6.47;4.95;;;;;;;-145.41;100.00;58600.66;4974524;28;20062;-75
2023/07/10 02:08:16;;;;;;;7.93;6.05;;;;;;;-145.41;100.00;58600.66;4976230;28;20497;-75
2023/07/10 02:10:42;;;;;;;7.60;5.80;;;;;;;-145.41;100.00;58600.66;4973641;28;20074;-75
2023/07/10 02:13:07;;;;;;;11.07;5.95;;;;;;;-145.41;100.00;58600.66;4989075;28;20022;-75
2023/07/10 02:15:32;;;;;;;6.95;5.53;;;;;;;-145.41;100.00;58600.66;4974244;28;20110;-75
2023/07/10 02:17:58;;;;;;;8.10;5.75;;;;;;;-145.41;100.00;58600.66;4989105;28;20081;-75
2023/07/10 02:20:24;;;;;;;8.65;5.55;;;;;;;-145.41;100.00;58600.66;4973508;28;20449;-74
2023/07/10 02:22:50;;;;;;;7.68;5.40;;;;;;;-145.41;100.00;58600.66;4974469;28;20057;-74
2023/07/10 02:25:15;;;;;;;6.53;5.03;;;;;;;-145.41;100.00;58600.66;4987954;28;20550;-74
2023/07/10 02:27:41;;;;;;;6.50;5.22;;;;;;;-145.41;100.00;58600.66;4973795;28;20030;-75
2023/07/10 02:30:07;;;;;;;7.55;5.53;;;;;;;-145.41;100.00;58600.66;4971171;28;20405;-75
2023/07/10 02:32:32;;;;;;;7.10;5.88;;;;;;;-145.41;100.00;58600.66;4974020;28;20038;-74
2023/07/10 02:34:57;;;;;;;7.40;4.95;;;;;;;-145.41;100.00;58600.66;4973837;28;20045;-74
2023/07/10 02:37:23;;;;;;;7.32;5.78;;;;;;;-145.41;100.00;58600.66;4973667;28;20038;-74
2023/07/10 02:39:49;;;;;;;6.65;5.30;;;;;;;-145.41;100.00;58600.66;4981728;28;20061;-74
2023/07/10 02:42:14;;;;;;;7.82;6.07;;;;;;;-145.41;100.00;58600.66;4988580;28;20039;-74
2023/07/10 02:44:39;;;;;;;6.05;5.35;;;;;;;-145.41;100.00;58600.66;4971894;28;20039;-73
2023/07/10 02:47:05;;;;;;;8.00;5.47;;;;;;;-145.41;100.00;58600.66;4973467;28;20039;-74
2023/07/10 02:49:30;;;;;;;8.07;5.63;;;;;;;-145.41;100.00;58600.66;4972878;28;20030;-74
2023/07/10 02:51:55;;;;;;;8.70;6.75;;;;;;;-145.41;100.00;58600.66;4970186;28;20469;-75
2023/07/10 02:54:21;;;;;;;8.57;6.13;;;;;;;-145.41;100.00;58600.66;4970144;28;20478;-75
2023/07/10 02:56:46;;;;;;;7.00;5.70;;;;;;;-145.41;100.00;58600.66;4971620;28;20121;-75
2023/07/10 02:59:11;;;;;;;6.30;5.20;;;;;;;-145.41;100.00;58600.66;4972215;28;20039;-75
2023/07/10 03:01:37;;;;;;;8.32;5.68;;;;;;;-145.41;100.00;58600.66;4973153;28;20077;-75
2023/07/10 03:04:02;;;;;;;6.50;5.50;;;;;;;-145.41;100.00;58600.66;4988040;28;20110;-74
2023/07/10 03:06:28;;;;;;;7.90;5.57;;;;;;;-145.41;100.00;58600.66;4971866;28;20042;-74
2023/07/10 03:08:53;;;;;;;9.20;5.10;;;;;;;-145.41;100.00;58600.66;4973170;28;20030;-75
2023/07/10 03:11:21;;;;;;;7.03;4.75;;;;;;;-145.41;100.00;58600.66;4970835;28;20110;-74
2023/07/10 03:13:46;;;;;;;8.43;5.60;;;;;;;-145.41;100.00;58600.66;4974848;28;20022;-74
2023/07/10 03:16:14;;;;;;;10.10;5.68;;;;;;;-145.41;100.00;58600.66;4972903;28;20509;-75
2023/07/10 03:18:40;;;;;;;8.02;5.38;;;;;;;-145.41;100.00;58600.66;4972197;28;20034;-75
2023/07/10 03:21:06;;;;;;;8.98;6.03;;;;;;;-145.41;100.00;58600.66;4971716;28;20653;-75
2023/07/10 03:23:32;;;;;;;9.30;5.63;;;;;;;-145.41;100.00;58600.66;4987615;28;20035;-75
2023/07/10 03:25:57;;;;;;;8.52;6.07;;;;;;;-145.41;100.00;58600.66;4972905;28;20045;-75
2023/07/10 03:28:23;;;;;;;11.50;6.43;;;;;;;-145.41;100.00;58600.66;4972282;28;20052;-74
2023/07/10 03:30:48;;;;;;;8.00;6.07;;;;;;;-145.41;100.00;58600.66;4971719;28;20335;-75
2023/07/10 03:33:15;;;;;;;10.40;9.13;;;;;;;-145.41;100.00;58600.66;4972500;28;20058;-75
2023/07/10 03:35:41;;;;;;;9.60;7.68;;;;;;;-145.41;100.00;58600.66;4971960;28;20065;-75
2023/07/10 03:38:07;;;;;;;9.52;7.05;;;;;;;-145.41;100.00;58600.66;4972283;28;20039;-76
2023/07/10 03:40:32;;;;;;;7.45;6.38;;;;;;;-145.41;100.00;58600.66;4971825;28;20097;-75
2023/07/10 03:42:57;;;;;;;8.05;6.20;;;;;;;-145.41;100.00;58600.66;4968794;28;20039;-73
2023/07/10 03:45:23;;;;;;;7.53;6.35;;;;;;;-145.41;100.00;58600.66;4972595;28;20037;-75
2023/07/10 03:47:48;;;;;;;9.32;6.50;;;;;;;-145.41;100.00;58600.66;4972428;28;20035;-76
2023/07/10 03:50:13;;;;;;;8.73;6.53;;;;;;;-145.41;100.00;58600.66;4971614;28;20111;-75
2023/07/10 03:52:39;;;;;;;9.10;6.97;;;;;;;-145.41;100.00;58600.66;4972258;28;20041;-75
2023/07/10 03:55:05;;;;;;;12.57;9.48;;;;;;;-145.41;100.00;58600.66;4970885;28;20486;-76
2023/07/10 03:57:30;;;;;;;9.48;6.63;;;;;;;-145.41;100.00;58600.66;4972342;28;20158;-76
2023/07/10 03:59:55;;;;;;;9.27;7.75;;;;;;;-145.41;100.00;58600.66;4971387;28;20070;-75
2023/07/10 04:02:21;;;;;;;9.05;7.45;;;;;;;-145.41;100.00;58600.66;4971114;28;20101;-76
2023/07/10 04:04:46;;;;;;;10.10;8.10;;;;;;;-145.41;100.00;58600.66;4972246;28;20402;-75
2023/07/10 04:07:11;;;;;;;8.95;6.93;;;;;;;-145.41;100.00;58600.66;4972015;28;20405;-75
2023/07/10 04:09:37;;;;;;;9.60;6.75;;;;;;;-145.41;100.00;58600.66;4971557;28;20039;-75
2023/07/10 04:12:02;;;;;;;8.52;6.25;;;;;;;-145.41;100.00;58600.66;4971802;28;20045;-75
2023/07/10 04:14:28;;;;;;;11.60;9.45;;;;;;;-145.41;100.00;58600.66;4971873;28;20122;-75
2023/07/10 04:16:53;;;;;;;9.32;7.65;;;;;;;-145.41;100.00;58600.66;4972170;28;20038;-75
2023/07/10 04:19:19;;;;;;;12.82;9.32;;;;;;;-145.41;100.00;58600.66;4971285;28;20045;-75
2023/07/10 04:21:45;;;;;;;11.80;7.18;;;;;;;-145.41;100.00;58600.66;4968334;28;20505;-75
2023/07/10 04:24:10;;;;;;;9.43;6.57;;;;;;;-145.41;100.00;58600.66;4972394;28;20046;-75
2023/07/10 04:26:36;;;;;;;8.05;6.25;;;;;;;-145.41;100.00;58600.66;4986700;28;20117;-75
2023/07/10 04:29:04;;;;;;;8.07;5.65;;;;;;;-145.41;100.00;58600.66;4969229;28;20104;-75
2023/07/10 04:31:30;;;;;;;11.15;9.20;;;;;;;-145.41;100.00;58600.66;4973403;28;20114;-74
2023/07/10 04:33:56;;;;;;;9.88;7.57;;;;;;;-145.41;100.00;58600.66;4976231;28;20122;-75
2023/07/10 04:36:22;;;;;;;8.27;7.10;;;;;;;-145.41;100.00;58600.66;4975552;28;20030;-74
2023/07/10 04:38:48;;;;;;;24.30;21.10;;;;;;;-145.41;100.00;58600.66;4974033;28;20058;-73
2023/07/10 04:41:17;;;;;;;14.63;13.13;;;;;;;-145.41;100.00;58600.66;4975438;28;20100;-75
2023/07/10 04:43:43;;;;;;;14.57;13.07;;;;;;;-145.41;100.00;58600.66;4975258;28;20027;-75
2023/07/10 04:46:11;;;;;;;12.90;11.23;;;;;;;-145.41;100.00;58600.66;4975513;28;20052;-75
2023/07/10 04:48:37;;;;;;;10.55;9.20;;;;;;;-145.41;100.00;58600.66;4974433;28;20034;-75
2023/07/10 04:51:04;;;;;;;12.60;9.73;;;;;;;-145.41;100.00;58600.66;4973317;28;20034;-74
2023/07/10 04:53:33;;;;;;;13.93;9.38;;;;;;;-145.41;100.00;58600.66;4974416;28;20504;-75
2023/07/10 04:56:04;;;;;;;12.60;7.00;;;;;;;-145.41;100.00;58600.66;4969687;28;20037;-75
2023/07/10 04:58:45;;;;;;;8.05;6.18;;;;;;;-145.41;100.00;58600.66;4975407;28;20066;-75
2023/07/10 05:01:10;;;;;;;10.25;8.38;;;;;;;-145.41;100.00;58600.66;4978675;28;20041;-74
2023/07/10 05:03:37;;;;;;;11.35;9.52;;;;;;;-145.41;100.00;58600.66;4974075;28;20042;-75
2023/07/10 05:06:03;;;;;;;13.18;11.77;;;;;;;-145.41;100.00;58600.66;4974240;28;20030;-74
2023/07/10 05:08:28;;;;;;;19.55;16.13;;;;;;;-145.41;100.00;58600.66;4974627;28;20035;-75
2023/07/10 05:10:54;;;;;;;10.23;9.13;;;;;;;-145.41;100.00;58600.66;4974067;28;20462;-75
2023/07/10 05:13:22;;;;;;;13.00;7.85;;;;;;;-145.41;100.00;58600.66;4974603;28;20500;-75
2023/07/10 05:15:47;;;;;;;9.77;6.75;;;;;;;-145.41;100.00;58600.66;4974711;28;20042;-76
2023/07/10 05:18:14;;;;;;;10.73;7.38;;;;;;;-145.41;100.00;58600.66;4972763;28;20052;-74
2023/07/10 05:20:39;;;;;;;10.10;6.82;;;;;;;-145.41;100.00;58600.66;4975208;28;20042;-75
2023/07/10 05:23:05;;;;;;;9.23;6.68;;;;;;;-145.41;100.00;58600.66;4975768;28;20106;-75
2023/07/10 05:25:30;;;;;;;7.03;6.05;;;;;;;-145.41;100.00;58600.66;4976862;28;20031;-75
2023/07/10 05:27:56;;;;;;;8.48;6.90;;;;;;;-145.41;100.00;58600.66;4974800;28;20042;-76
2023/07/10 05:30:22;;;;;;;7.90;6.05;;;;;;;-145.41;100.00;58600.66;4971147;28;20094;-75
2023/07/10 05:32:48;;;;;;;8.68;5.50;;;;;;;-145.41;100.00;58600.66;4977730;28;20045;-75
2023/07/10 05:35:13;;;;;;;8.77;5.60;;;;;;;-145.41;100.00;58600.66;4972862;28;20109;-75
2023/07/10 05:37:38;;;;;;;14.63;7.57;;;;;;;-145.41;100.00;58600.66;4974812;28;20031;-79
2023/07/10 05:40:04;;;;;;;12.82;7.47;;;;;;;-145.41;100.00;58600.66;4976035;28;20486;-77
2023/07/10 05:42:30;;;;;;;17.42;12.75;;;;;;;-145.41;100.00;58600.66;4975561;28;20490;-77
2023/07/10 05:44:55;;;;;;;15.45;11.10;;;;;;;-145.41;100.00;58600.66;4977506;28;20053;-77
2023/07/10 05:47:20;;;;;;;12.43;10.27;;;;;;;-145.41;100.00;58600.66;4978576;28;20073;-78
2023/07/10 05:49:46;;;;;;;12.93;9.18;;;;;;;-145.41;100.00;58600.66;4975109;28;20042;-77
2023/07/10 05:52:11;;;;;;;13.27;10.63;;;;;;;-145.41;100.00;58600.66;4974615;28;20097;-77
2023/07/10 05:54:36;;;;;;;11.05;9.13;;;;;;;-145.41;100.00;58600.66;4978973;28;20050;-78
2023/07/10 05:57:02;;;;;;;13.60;9.23;;;;;;;-145.41;100.00;58600.66;4973577;28;20188;-78
2023/07/10 05:59:27;;;;;;;13.15;7.30;;;;;;;-145.41;100.00;58600.66;4974956;28;20156;-78
2023/07/10 06:01:53;;;;;;;8.52;6.20;;;;;;;-145.41;100.00;58600.66;4976760;28;20048;-78
2023/07/10 06:04:19;;;;;;;10.05;6.80;;;;;;;-145.41;100.00;58600.66;4976912;28;20070;-79
2023/07/10 06:06:45;;;;;;;8.93;7.43;;;;;;;-145.41;100.00;58600.66;4976236;28;20034;-78
2023/07/10 06:09:10;;;;;;;9.93;7.90;;;;;;;-145.41;100.00;58600.66;4976242;28;20460;-78
2023/07/10 06:11:36;;;;;;;10.73;7.70;;;;;;;-145.41;100.00;58600.66;4976536;28;20066;-78
2023/07/10 06:14:01;;;;;;;11.45;8.60;;;;;;;-145.41;100.00;58600.66;4976516;28;20034;-79
2023/07/10 06:16:27;;;;;;;9.80;8.18;;;;;;;-145.41;100.00;58600.66;4978976;28;20038;-78
2023/07/10 06:18:52;;;;;;;11.80;7.95;;;;;;;-145.41;100.00;58600.66;4976411;28;20362;-78
2023/07/10 06:21:18;;;;;;;9.32;7.43;;;;;;;-145.41;100.00;58600.66;4990646;28;20066;-77
2023/07/10 06:23:43;;;;;;;15.13;11.85;;;;;;;-145.41;100.00;58600.66;4978107;28;20038;-78
2023/07/10 06:26:09;;;;;;;10.75;9.52;;;;;;;-145.41;100.00;58600.66;4981114;28;20096;-78
2023/07/10 06:28:34;;;;;;;12.02;7.18;;;;;;;-145.41;100.00;58600.66;4972692;28;20063;-78
2023/07/10 06:31:03;;;;;;;8.38;7.15;;;;;;;-145.41;100.00;58600.66;4974567;28;20045;-78
2023/07/10 06:33:30;;;;;;;13.95;11.98;;;;;;;-145.41;100.00;58600.66;4975924;28;20039;-78
2023/07/10 06:35:56;;;;;;;17.33;13.50;;;;;;;-145.41;100.00;58600.66;4973889;28;20472;-78
2023/07/10 06:38:22;;;;;;;10.57;8.00;;;;;;;-145.41;100.00;58600.66;4976238;28;20085;-78
2023/07/10 06:40:48;;;;;;;11.63;8.02;;;;;;;-145.41;100.00;58600.66;4980681;28;20041;-78
2023/07/10 06:43:14;;;;;;;10.98;8.75;;;;;;;-145.41;100.00;58600.66;4976812;28;20026;-79
2023/07/10 06:45:39;;;;;;;13.82;12.43;;;;;;;-145.41;100.00;58600.66;4975476;28;20045;-79
2023/07/10 06:48:06;;;;;;;11.70;10.27;;;;;;;-145.41;100.00;58600.66;4974655;28;20039;-78
2023/07/10 06:50:31;;;;;;;8.98;6.43;;;;;;;-145.41;100.00;58600.66;4988890;28;20038;-79
2023/07/10 06:52:57;;;;;;;10.57;5.82;;;;;;;-145.41;100.00;58600.66;4981578;28;20167;-78
2023/07/10 06:55:22;;;;;;;7.10;5.95;;;;;;;-145.41;100.00;58600.66;4972161;28;20039;-78
2023/07/10 06:57:47;;;;;;;11.95;9.32;;;;;;;-145.41;100.00;58600.66;4973172;28;20116;-78
2023/07/10 07:00:14;;;;;;;14.45;10.68;;;;;;;-145.41;100.00;58600.66;4973091;28;20073;-78
2023/07/10 07:02:40;;;;;;;14.65;9.98;;;;;;;-145.41;100.00;58600.66;4974365;28;20486;-78
2023/07/10 07:05:07;;;;;;;8.90;6.80;;;;;;;-145.41;100.00;58600.66;4974328;28;20038;-78
2023/07/10 07:07:32;;;;;;;7.72;6.13;;;;;;;-145.41;100.00;58600.66;4973093;28;20165;-78
2023/07/10 07:09:58;;;;;;;8.68;6.13;;;;;;;-145.41;100.00;58600.66;4972202;28;20121;-78
2023/07/10 07:12:23;;;;;;;7.18;4.80;;;;;;;-145.41;100.00;58600.66;4973855;28;20118;-79
2023/07/10 07:14:49;;;;;;;6.80;4.40;;;;;;;-145.41;100.00;58600.66;4988853;28;20035;-77
2023/07/10 07:17:14;;;;;;;7.55;5.07;;;;;;;-145.41;100.00;58600.66;4972558;28;20182;-77
2023/07/10 07:19:41;;;;;;;7.40;5.18;;;;;;;-145.41;100.00;58600.66;4973369;28;20090;-77
2023/07/10 07:22:06;;;;;;;9.65;4.78;;;;;;;-145.41;100.00;58600.66;4972341;28;20042;-77
2023/07/10 07:24:32;;;;;;;7.40;4.60;;;;;;;-145.41;100.00;58600.66;4973582;28;20035;-77
2023/07/10 07:26:59;;;;;;;6.47;4.90;;;;;;;-145.41;100.00;58600.66;4973539;28;20034;-77
2023/07/10 07:29:25;;;;;;;6.55;4.90;;;;;;;-145.41;100.00;58600.66;4969688;28;20034;-77
2023/07/10 07:31:51;;;;;;;6.22;4.40;;;;;;;-145.41;100.00;58600.66;4973227;28;20049;-77
2023/07/10 07:34:16;;;;;;;6.70;5.18;;;;;;;-145.41;100.00;58600.66;4969969;28;20038;-76
2023/07/10 07:36:41;;;;;;;8.13;5.43;;;;;;;-145.41;100.00;58600.66;4972522;28;20045;-76
2023/07/10 07:39:07;;;;;;;8.43;5.18;;;;;;;-145.41;100.00;58600.66;4968517;28;20060;-77
2023/07/10 07:41:32;;;;;;;9.25;5.03;;;;;;;-145.41;100.00;58600.66;4971085;28;20053;-76
2023/07/10 07:43:58;;;;;;;8.32;6.03;;;;;;;-145.41;100.00;58600.66;4972256;28;20105;-76
2023/07/10 07:46:24;;;;;;;8.50;5.57;;;;;;;-145.41;100.00;58600.66;4972619;28;20038;-76
2023/07/10 07:48:50;;;;;;;8.93;6.53;;;;;;;-145.41;100.00;58600.66;4979665;28;20038;-76
2023/07/10 07:51:16;;;;;;;7.28;5.13;;;;;;;-145.41;100.00;58600.66;4972360;28;20093;-76
2023/07/10 07:53:41;;;;;;;8.52;5.22;;;;;;;-145.41;100.00;58600.66;4972794;28;20027;-77
2023/07/10 07:56:07;;;;;;;8.10;5.53;;;;;;;-145.41;100.00;58600.66;4973793;28;20408;-76
2023/07/10 07:58:33;;;;;;;9.50;7.93;;;;;;;-145.41;100.00;58600.66;4972600;28;20037;-76
2023/07/10 08:00:59;;;;;;;12.25;10.15;;;;;;;-145.41;100.00;58600.66;4971110;28;20456;-76
2023/07/10 08:03:25;;;;;;;14.75;11.57;;;;;;;-145.41;100.00;58600.66;4972194;28;20086;-77
2023/07/10 08:05:51;;;;;;;9.75;8.10;;;;;;;-145.41;100.00;58600.66;4972038;28;20406;-76
2023/07/10 08:08:16;;;;;;;14.50;8.77;;;;;;;-145.41;100.00;58600.66;4973711;28;20038;-76
2023/07/10 08:10:46;;;;;;;11.70;10.00;;;;;;;-145.41;100.00;58600.66;5030916;22;20082;-79
2023/07/10 08:13:12;;;;;;;11.93;7.95;;;;;;;-145.41;100.00;58600.66;4990309;28;20042;-79
2023/07/10 08:15:38;;;;;;;11.75;9.57;;;;;;;-145.41;100.00;58600.66;4988915;28;20035;-78
2023/07/10 08:18:03;;;;;;;11.20;9.52;;;;;;;-145.41;100.00;58600.66;4988946;28;20033;-78
2023/07/10 08:20:30;;;;;;;11.90;9.25;;;;;;;-145.41;100.00;58600.66;4990320;28;20504;-79
2023/07/10 08:22:55;;;;;;;10.80;8.82;;;;;;;-145.41;100.00;58600.66;4991312;28;20034;-78
2023/07/10 08:25:21;;;;;;;10.07;8.93;;;;;;;-145.41;100.00;58600.66;4991098;28;20038;-78
2023/07/10 08:27:46;;;;;;;9.27;8.20;;;;;;;-145.41;100.00;58600.66;4991305;28;20049;-78
2023/07/10 08:30:13;;;;;;;11.50;9.10;;;;;;;-145.41;100.00;58600.66;4990603;28;20399;-78
2023/07/10 08:32:39;;;;;;;9.48;8.55;;;;;;;-145.41;100.00;58600.66;4989934;28;20117;-78
2023/07/10 08:35:06;;;;;;;8.25;7.18;;;;;;;-145.41;100.00;58600.66;4987697;28;20045;-78
2023/07/10 08:37:32;;;;;;;10.70;8.90;;;;;;;-145.41;100.00;58600.66;4985136;28;20077;-78
2023/07/10 08:39:57;;;;;;;11.15;8.50;;;;;;;-145.41;100.00;58600.66;4989927;28;20070;-78
2023/07/10 08:42:31;;;;;;;10.52;9.43;;;;;;;-145.41;100.00;58600.66;4989681;28;20473;-78
2023/07/10 08:44:59;;;;;;;10.90;9.60;;;;;;;-145.41;100.00;58600.66;4989141;28;20401;-78
2023/07/10 08:47:34;;;;;;;13.05;9.55;;;;;;;-145.41;100.00;58600.66;4991004;28;20409;-78
2023/07/10 08:50:10;;;;;;;12.77;9.20;;;;;;;-145.41;100.00;58600.66;4990038;28;20034;-78
2023/07/10 08:52:53;;;;;;;17.33;12.10;;;;;;;-145.41;100.00;58600.66;4990003;28;20042;-78
2023/07/10 08:55:27;;;;;;;11.82;9.52;;;;;;;-145.41;100.00;58600.66;4990836;28;20093;-79
2023/07/10 08:58:02;;;;;;;11.93;8.52;;;;;;;-145.41;100.00;58600.66;4996495;28;20039;-79
2023/07/10 09:00:35;;;;;;;12.32;11.00;;;;;;;-145.41;100.00;58600.66;4990095;28;20085;-78
2023/07/10 09:03:22;;;;;;;11.50;9.55;;;;;;;-145.41;100.00;58600.66;4991129;28;20037;-78
2023/07/10 09:05:51;;;;;;;7.30;6.60;;;;;;;-145.41;100.00;58600.66;4987934;28;20077;-77
2023/07/10 09:08:17;;;;;;;11.02;8.15;;;;;;;-145.41;100.00;58600.66;4990103;28;20034;-78
2023/07/10 09:10:44;;;;;;;13.65;10.20;;;;;;;-145.41;100.00;58600.66;4990090;28;20180;-77
2023/07/10 09:13:14;;;;;;;11.48;10.27;;;;;;;-145.41;100.00;58600.66;4990849;28;20048;-78
2023/07/10 09:15:47;;;;;;;11.40;10.20;;;;;;;-145.41;100.00;58600.66;4986673;28;20480;-78
2023/07/10 09:18:30;;;;;;;13.57;8.20;;;;;;;-145.41;100.00;58600.66;4991880;28;20072;-78
2023/07/10 09:20:59;;;;;;;10.13;7.53;;;;;;;-145.41;100.00;58600.66;4991591;28;20122;-79
2023/07/10 09:23:28;;;;;;;8.63;7.43;;;;;;;-145.41;100.00;58600.66;4994413;28;20449;-78
2023/07/10 09:25:56;;;;;;;8.70;7.00;;;;;;;-145.41;100.00;58600.66;4991899;28;20068;-78
2023/07/10 09:28:23;;;;;;;10.30;8.25;;;;;;;-145.41;100.00;58600.66;4994286;28;20075;-78
2023/07/10 09:30:57;;;;;;;15.35;10.60;;;;;;;-145.41;100.00;58600.66;4993003;28;20523;-77
2023/07/10 09:33:37;;;;;;;9.88;8.68;;;;;;;-145.41;100.00;58600.66;4993774;28;20037;-78
2023/07/10 09:36:02;;;;;;;11.13;9.85;;;;;;;-145.41;100.00;58600.66;4992868;28;20038;-78
2023/07/10 09:38:27;;;;;;;8.32;7.43;;;;;;;-145.41;100.00;58600.66;4993389;28;20172;-78
2023/07/10 09:40:55;;;;;;;10.88;9.77;;;;;;;-145.41;100.00;58600.66;4991059;28;20037;-78
2023/07/10 09:43:23;;;;;;;7.47;6.07;;;;;;;-145.41;100.00;58600.66;4993433;28;20022;-78
2023/07/10 09:45:58;;;;;;;7.78;6.68;;;;;;;-145.41;100.00;58600.66;4994091;28;20854;-77
2023/07/10 09:48:31;;;;;;;10.60;7.90;;;;;;;-145.41;100.00;58600.66;4994129;28;20030;-78
2023/07/10 09:51:02;;;;;;;9.32;8.40;;;;;;;-145.41;100.00;58600.66;4990583;28;20038;-78
2023/07/10 09:53:31;;;;;;;7.38;6.45;;;;;;;-145.41;100.00;58600.66;4990499;28;20409;-77
2023/07/10 09:55:57;;;;;;;10.20;7.82;;;;;;;-145.41;100.00;58600.66;4990562;28;20369;-78
2023/07/10 09:58:23;;;;;;;10.07;5.63;;;;;;;-145.41;100.00;58600.66;4993221;28;20431;-77
2023/07/10 10:00:48;;;;;;;7.25;5.35;;;;;;;-145.41;100.00;58600.66;4992534;28;20034;-77
2023/07/10 10:03:21;;;;;;;8.27;6.05;;;;;;;-145.41;100.00;58600.66;4993694;28;20448;-78
2023/07/10 10:05:52;;;;;;;6.80;5.57;;;;;;;-145.41;100.00;58600.66;4993437;28;20509;-78
2023/07/10 10:08:25;;;;;;;;;;;;;;;-145.41;100.00;58600.66;4994295;28;20038;-78
2023/07/10 10:11:06;;;;;;;9.90;6.57;;;;;;;-145.41;100.00;58600.66;4990355;28;19953;-79
2023/07/10 10:13:43;;;;;;;;;;;;;;;-145.41;100.00;58600.66;4992323;28;20571;-78
2023/07/10 10:16:31;;;;;;;9.60;4.60;;;;;;;-145.41;100.00;58600.66;4989943;28;19913;-78
2023/07/10 10:19:27;;;;;;;8.52;5.95;;;;;;;-145.41;100.00;58600.66;4989819;28;20034;-78
2023/07/10 10:21:55;;;;;;;7.07;4.38;;;;;;;-145.41;100.00;58600.66;4990719;28;20030;-79
2023/07/10 10:24:22;;;;;;;8.48;5.20;;;;;;;-145.41;100.00;58600.66;4993166;28;20030;-78
2023/07/10 10:27:02;;;;;;;6.63;5.05;;;;;;;-145.41;100.00;58600.66;4992859;28;20030;-78
2023/07/10 10:29:47;;;;;;;5.75;4.53;;;;;;;-145.41;100.00;58600.66;4991920;28;20033;-78
2023/07/10 10:32:30;;;;;;;7.75;4.90;;;;;;;-145.41;100.00;58600.66;4991595;28;20065;-79
2023/07/10 10:35:10;;;;;;;6.07;4.47;;;;;;;-145.41;100.00;58600.66;4991716;28;20026;-77
2023/07/10 10:37:35;;;;;;;6.78;4.90;;;;;;;-145.41;100.00;58600.66;4991492;28;20109;-79
2023/07/10 10:40:10;;;;;;;8.02;4.60;;;;;;;-145.41;100.00;58600.66;4990927;28;20541;-78
2023/07/10 10:42:52;;;;;;;7.40;5.18;;;;;;;-145.41;100.00;58600.66;4989724;28;20030;-79
2023/07/10 10:45:37;;;;;;;6.45;4.40;;;;;;;-145.41;100.00;58600.66;5002328;28;20473;-78
2023/07/10 10:48:15;;;;;;;6.18;4.38;;;;;;;-145.41;100.00;58600.66;4989382;28;20403;-78
2023/07/10 10:51:05;;;;;;;6.88;4.70;;;;;;;-145.41;100.00;58600.66;4992385;28;20123;-79
2023/07/10 10:53:53;;;;;;;6.18;4.88;;;;;;;-145.41;100.00;58600.66;4992377;28;20125;-78
2023/07/10 10:56:18;;;;;;;6.70;4.22;;;;;;;-145.41;100.00;58600.66;4993952;28;20030;-78
2023/07/10 10:58:56;;;;;;;8.73;5.38;;;;;;;-145.41;100.00;58600.66;4993238;28;20038;-79
2023/07/10 11:01:33;;;;;;;7.03;5.03;;;;;;;-145.41;100.00;58600.66;4989732;28;20112;-76
2023/07/10 11:04:10;;;;;;;6.63;4.43;;;;;;;-145.41;100.00;58600.66;4987835;28;20114;-76
2023/07/10 11:06:45;;;;;;;8.38;5.13;;;;;;;-145.41;100.00;58600.66;4989525;28;20045;-75
2023/07/10 11:09:16;;;;;;;5.68;4.60;;;;;;;-145.41;100.00;58600.66;4989080;28;20034;-76
2023/07/10 11:11:42;;;;;;;7.82;5.07;;;;;;;-145.41;100.00;58600.66;4990818;28;20034;-76
2023/07/10 11:14:10;;;;;;;7.45;4.50;;;;;;;-145.41;100.00;58600.66;4990575;28;20473;-76